Terminal Aerodrome Forecast
Issued by NWS

Home | Current Version | Previous Version | Graphics & Text | Print | Product List | Glossary On
Versions: 1 2 3 4 5 6 7 8 9 10 11 12
898
FTUS45 KGGW 162335
TAFSDY
TAF
KSDY 162335Z 1700/1724 VRB06KT P6SM SKC
     FM171000 22009KT P6SM FEW250 WS020/30035KT
     FM172100 26012KT P6SM SKC=

USA.gov is the U.S. government's official web portal to all federal, state and local government web resources and services.